createdAt,value
2023-12-30T00:00:20.134Z,8.50
2023-12-30T00:03:07.800Z,8.50
2023-12-30T00:05:35.397Z,8.50
2023-12-30T00:08:02.775Z,8.40
2023-12-30T00:10:30.889Z,8.40
2023-12-30T00:12:58.574Z,8.40
2023-12-30T00:15:26.284Z,8.40
2023-12-30T00:17:53.630Z,8.40
2023-12-30T00:20:21.354Z,8.40
2023-12-30T00:22:48.696Z,8.30
2023-12-30T00:25:17.890Z,7.80
2023-12-30T00:27:45.360Z,7.60
2023-12-30T00:30:14.917Z,7.50
2023-12-30T00:32:42.284Z,7.60
2023-12-30T00:35:10.323Z,7.50
2023-12-30T00:37:37.815Z,7.50
2023-12-30T00:40:06.358Z,7.40
2023-12-30T00:42:33.715Z,7.40
2023-12-30T00:45:01.229Z,7.50
2023-12-30T00:47:28.725Z,7.50
2023-12-30T00:49:56.162Z,7.40
2023-12-30T00:52:23.635Z,7.50
2023-12-30T00:54:51.824Z,7.50
2023-12-30T00:57:19.288Z,7.60
2023-12-30T00:59:46.703Z,7.70
2023-12-30T01:02:14.181Z,7.70
2023-12-30T01:04:41.693Z,7.70
2023-12-30T01:07:09.160Z,7.80
2023-12-30T01:09:36.842Z,7.90
2023-12-30T01:12:04.590Z,7.90
2023-12-30T01:14:31.883Z,7.90
2023-12-30T01:16:59.164Z,7.90
2023-12-30T01:19:27.478Z,7.90
2023-12-30T01:21:54.925Z,7.90
2023-12-30T01:24:22.338Z,7.80
2023-12-30T01:26:49.935Z,7.80
2023-12-30T01:29:17.474Z,7.80
2023-12-30T01:31:44.784Z,7.80
2023-12-30T01:34:12.405Z,7.90
2023-12-30T01:36:39.989Z,7.90
2023-12-30T01:39:07.360Z,7.80
2023-12-30T01:41:34.836Z,7.80
2023-12-30T01:44:02.398Z,7.80
2023-12-30T01:46:29.936Z,7.80
2023-12-30T01:48:57.740Z,7.70
2023-12-30T01:51:26.780Z,7.60
2023-12-30T01:53:56.007Z,7.60
2023-12-30T01:56:24.678Z,7.40
2023-12-30T01:58:53.401Z,7.40
2023-12-30T02:01:24.236Z,7.40
2023-12-30T02:03:52.061Z,7.50
2023-12-30T02:06:19.878Z,7.50
2023-12-30T02:08:48.669Z,7.60
2023-12-30T02:11:17.058Z,7.60
2023-12-30T02:13:45.725Z,7.60
2023-12-30T02:16:13.482Z,7.60
2023-12-30T02:18:41.586Z,7.60
2023-12-30T02:21:08.961Z,7.60
2023-12-30T02:23:36.775Z,7.60
2023-12-30T02:26:07.545Z,7.60
2023-12-30T02:28:35.511Z,7.60
2023-12-30T02:31:05.487Z,7.60
2023-12-30T02:33:33.121Z,7.50
2023-12-30T02:36:00.747Z,7.50
2023-12-30T02:38:28.198Z,7.50
2023-12-30T02:40:56.373Z,7.50
2023-12-30T02:43:26.288Z,7.40
2023-12-30T02:45:56.988Z,7.40
2023-12-30T02:48:24.586Z,7.40
2023-12-30T02:50:52.034Z,7.30
2023-12-30T02:53:19.538Z,7.20
2023-12-30T02:55:46.856Z,7.20
2023-12-30T02:58:14.438Z,7.20
2023-12-30T03:00:42.509Z,7.20
2023-12-30T03:03:10.008Z,7.20
2023-12-30T03:05:38.148Z,7.20
2023-12-30T03:08:05.797Z,7.30
2023-12-30T03:10:33.402Z,7.40
2023-12-30T03:13:01.788Z,7.40
2023-12-30T03:15:29.326Z,7.40
2023-12-30T03:17:56.807Z,7.30
2023-12-30T03:20:24.506Z,7.30
2023-12-30T03:22:52.160Z,7.30
2023-12-30T03:25:19.490Z,7.40
2023-12-30T03:27:46.988Z,7.40
2023-12-30T03:30:15.097Z,7.40
2023-12-30T03:32:42.480Z,7.40
2023-12-30T03:35:10.336Z,7.40
2023-12-30T03:37:37.849Z,7.40
2023-12-30T03:40:05.824Z,7.40
2023-12-30T03:42:33.247Z,7.40
2023-12-30T03:45:00.725Z,7.40
2023-12-30T03:47:28.078Z,7.40
2023-12-30T03:49:55.748Z,7.40
2023-12-30T03:52:23.299Z,7.40
2023-12-30T03:54:51.548Z,7.40
2023-12-30T03:57:19.833Z,7.40
2023-12-30T03:59:47.108Z,7.40
2023-12-30T04:02:14.921Z,7.40
2023-12-30T04:04:42.403Z,7.40
2023-12-30T04:07:09.908Z,7.40
2023-12-30T04:09:37.275Z,7.40
2023-12-30T04:12:05.058Z,7.40
2023-12-30T04:14:32.405Z,7.40
2023-12-30T04:16:59.842Z,7.30
2023-12-30T04:19:27.476Z,7.30
2023-12-30T04:21:54.856Z,7.30
2023-12-30T04:24:23.768Z,7.30
2023-12-30T04:26:52.764Z,7.30
2023-12-30T04:29:20.018Z,7.40
2023-12-30T04:31:47.441Z,7.30
2023-12-30T04:34:14.881Z,7.30
2023-12-30T04:36:42.226Z,7.30
2023-12-30T04:39:10.035Z,7.30
2023-12-30T04:41:37.371Z,7.20
2023-12-30T04:44:04.983Z,7.20
2023-12-30T04:46:32.456Z,7.20
2023-12-30T04:49:04.560Z,7.20
2023-12-30T04:51:31.947Z,7.20
2023-12-30T04:53:59.393Z,7.10
2023-12-30T04:56:26.816Z,7.10
2023-12-30T04:58:54.083Z,7.10
2023-12-30T05:01:21.662Z,7.10
2023-12-30T05:03:49.114Z,7.10
2023-12-30T05:06:23.115Z,7.10
2023-12-30T05:08:51.713Z,7.00
2023-12-30T05:11:19.328Z,7.00
2023-12-30T05:13:50.052Z,7.00
2023-12-30T05:16:17.695Z,6.90
2023-12-30T05:18:45.442Z,6.90
2023-12-30T05:21:16.829Z,6.90
2023-12-30T05:23:44.361Z,6.90
2023-12-30T05:26:15.877Z,6.90
2023-12-30T05:28:43.320Z,6.90
2023-12-30T05:31:10.834Z,6.90
2023-12-30T05:33:38.454Z,7.00
2023-12-30T05:36:06.275Z,7.00
2023-12-30T05:38:33.711Z,7.10
2023-12-30T05:41:01.202Z,7.10
2023-12-30T05:43:28.731Z,7.10
2023-12-30T05:45:56.295Z,7.00
2023-12-30T05:48:24.155Z,6.90
2023-12-30T05:50:51.546Z,6.90
2023-12-30T05:53:19.832Z,6.90
2023-12-30T05:55:47.152Z,7.00
2023-12-30T05:58:14.618Z,7.10
2023-12-30T06:00:42.096Z,7.00
2023-12-30T06:03:09.639Z,7.00
2023-12-30T06:05:37.247Z,7.00
2023-12-30T06:08:05.269Z,7.00
2023-12-30T06:10:32.665Z,6.90
2023-12-30T06:13:00.490Z,6.80
2023-12-30T06:15:28.005Z,6.80
2023-12-30T06:17:55.672Z,6.80
2023-12-30T06:20:24.664Z,6.70
2023-12-30T06:22:52.238Z,6.70
2023-12-30T06:25:19.879Z,6.70
2023-12-30T06:27:47.300Z,6.70
2023-12-30T06:30:15.371Z,6.60
2023-12-30T06:32:42.921Z,6.60
2023-12-30T06:35:10.659Z,6.60
2023-12-30T06:37:38.433Z,6.60
2023-12-30T06:40:06.679Z,6.60
2023-12-30T06:42:34.052Z,6.60
2023-12-30T06:45:01.653Z,6.50
2023-12-30T06:47:29.235Z,6.50
2023-12-30T06:49:57.363Z,6.50
2023-12-30T06:52:25.003Z,6.50
2023-12-30T06:55:02.711Z,6.50
2023-12-30T06:57:37.922Z,6.60
2023-12-30T07:00:07.140Z,6.60
2023-12-30T07:02:35.061Z,6.50
2023-12-30T07:05:02.394Z,6.50
2023-12-30T07:07:30.233Z,6.50
2023-12-30T07:09:57.790Z,6.40
2023-12-30T07:12:25.191Z,6.40
2023-12-30T07:14:52.734Z,6.40
2023-12-30T07:17:20.349Z,6.40
2023-12-30T07:19:47.841Z,6.40
2023-12-30T07:22:15.635Z,6.40
2023-12-30T07:24:42.976Z,6.50
2023-12-30T07:27:10.434Z,6.50
2023-12-30T07:29:37.814Z,6.50
2023-12-30T07:32:05.249Z,6.50
2023-12-30T07:34:32.612Z,6.50
2023-12-30T07:37:02.809Z,6.50
2023-12-30T07:39:30.248Z,6.50
2023-12-30T07:41:57.869Z,6.50
2023-12-30T07:44:25.132Z,6.50
2023-12-30T07:46:52.955Z,6.50
2023-12-30T07:49:20.369Z,6.60
2023-12-30T07:51:47.752Z,6.60
2023-12-30T07:54:15.151Z,6.60
2023-12-30T07:56:42.425Z,6.60
2023-12-30T07:59:10.037Z,6.60
2023-12-30T08:01:42.410Z,6.60
2023-12-30T08:04:10.136Z,6.60
2023-12-30T08:06:38.464Z,6.60
2023-12-30T08:09:05.866Z,6.70
2023-12-30T08:11:42.592Z,6.80
2023-12-30T08:14:18.858Z,6.80
2023-12-30T08:16:46.204Z,6.90
2023-12-30T08:19:13.903Z,7.00
2023-12-30T08:21:41.351Z,6.90
2023-12-30T08:24:08.674Z,6.90
2023-12-30T08:26:35.982Z,7.10
2023-12-30T08:29:03.349Z,7.10
2023-12-30T08:31:30.760Z,7.00
2023-12-30T08:33:58.224Z,7.00
2023-12-30T08:36:27.474Z,7.00
2023-12-30T08:38:54.891Z,6.90
2023-12-30T08:41:26.152Z,6.90
2023-12-30T08:43:53.950Z,6.90
2023-12-30T08:46:21.530Z,6.90
2023-12-30T08:48:49.010Z,7.00
2023-12-30T08:51:17.062Z,7.10
2023-12-30T08:53:44.385Z,7.20
2023-12-30T08:56:13.276Z,7.20
2023-12-30T08:58:40.654Z,7.30
2023-12-30T09:01:08.265Z,7.40
2023-12-30T09:03:36.605Z,7.60
2023-12-30T09:06:04.384Z,7.70
2023-12-30T09:08:31.899Z,7.90
2023-12-30T09:11:00.241Z,8.30
2023-12-30T09:13:27.767Z,8.60
2023-12-30T09:15:55.769Z,8.60
2023-12-30T09:18:23.501Z,8.70
2023-12-30T09:20:51.020Z,8.50
2023-12-30T09:23:18.729Z,8.50
2023-12-30T09:25:46.085Z,8.40
2023-12-30T09:28:13.512Z,8.30
2023-12-30T09:30:40.936Z,8.10
2023-12-30T09:33:11.031Z,7.90
2023-12-30T09:35:39.907Z,7.90
2023-12-30T09:38:07.332Z,7.80
2023-12-30T09:40:35.075Z,7.90
2023-12-30T09:43:06.819Z,7.80
2023-12-30T09:45:36.031Z,7.80
2023-12-30T09:48:04.581Z,7.80
2023-12-30T09:50:31.865Z,7.80
2023-12-30T09:52:59.420Z,7.90
2023-12-30T09:55:26.922Z,7.80
2023-12-30T09:57:54.363Z,7.90
2023-12-30T10:00:24.891Z,7.90
2023-12-30T10:02:53.961Z,7.80
2023-12-30T10:05:21.682Z,7.80
2023-12-30T10:07:49.942Z,7.70
2023-12-30T10:10:36.041Z,7.80
2023-12-30T10:13:03.694Z,7.70
2023-12-30T10:15:31.313Z,7.70
2023-12-30T10:17:58.718Z,7.70
2023-12-30T10:20:26.303Z,7.70
2023-12-30T10:22:53.769Z,7.70
2023-12-30T10:25:21.270Z,7.70
2023-12-30T10:27:49.586Z,7.70
2023-12-30T10:30:21.104Z,7.70
2023-12-30T10:32:48.974Z,7.80
2023-12-30T10:35:17.271Z,7.90
2023-12-30T10:37:46.900Z,7.90
2023-12-30T10:40:14.730Z,8.00
2023-12-30T10:42:42.366Z,8.00
2023-12-30T10:45:10.149Z,8.10
2023-12-30T10:47:43.995Z,8.10
2023-12-30T10:50:11.774Z,8.20
2023-12-30T10:52:47.787Z,8.20
2023-12-30T10:55:18.236Z,8.10
2023-12-30T10:58:02.060Z,8.10
2023-12-30T11:00:31.609Z,8.20
2023-12-30T11:02:59.616Z,8.20
2023-12-30T11:05:49.606Z,8.20
2023-12-30T11:08:19.260Z,8.10
2023-12-30T11:10:46.702Z,8.10
2023-12-30T11:13:14.282Z,8.10
2023-12-30T11:15:42.653Z,8.20
2023-12-30T11:18:15.264Z,8.20
2023-12-30T11:20:49.461Z,8.50
2023-12-30T11:23:17.867Z,8.70
2023-12-30T11:25:47.718Z,8.90
2023-12-30T11:28:22.678Z,8.90
2023-12-30T11:31:01.013Z,8.80
2023-12-30T11:33:29.291Z,8.80
2023-12-30T11:35:57.790Z,8.70
2023-12-30T11:38:26.044Z,8.80
2023-12-30T11:40:55.720Z,8.80
2023-12-30T11:43:23.876Z,8.60
2023-12-30T11:45:51.463Z,8.60
2023-12-30T11:48:19.185Z,8.50
2023-12-30T11:50:53.035Z,8.90
2023-12-30T11:53:20.312Z,9.10
2023-12-30T11:55:47.762Z,9.60
2023-12-30T11:58:16.134Z,9.70
2023-12-30T12:00:43.736Z,9.80
2023-12-30T12:03:12.201Z,10.00
2023-12-30T12:05:40.031Z,10.00
2023-12-30T12:08:11.790Z,9.80
2023-12-30T12:10:39.334Z,9.60
2023-12-30T12:13:10.862Z,9.20
2023-12-30T12:15:39.652Z,9.10
2023-12-30T12:18:09.100Z,9.00
2023-12-30T12:20:40.311Z,9.00
2023-12-30T12:23:08.194Z,9.00
2023-12-30T12:25:35.934Z,9.00
2023-12-30T12:28:10.070Z,8.70
2023-12-30T12:30:38.017Z,8.60
2023-12-30T12:33:06.595Z,8.90
2023-12-30T12:35:34.372Z,8.80
2023-12-30T12:38:02.156Z,8.70
2023-12-30T12:40:29.521Z,8.60
2023-12-30T12:43:01.708Z,8.60
2023-12-30T12:45:31.177Z,8.60
2023-12-30T12:47:59.243Z,8.70
2023-12-30T12:50:27.005Z,8.80
2023-12-30T12:52:54.429Z,8.70
2023-12-30T12:55:21.707Z,8.70
2023-12-30T12:57:49.072Z,8.60
2023-12-30T13:00:16.814Z,8.70
2023-12-30T13:02:44.220Z,8.70
2023-12-30T13:05:11.851Z,8.80
2023-12-30T13:07:43.420Z,8.90
2023-12-30T13:10:34.343Z,9.10
2023-12-30T13:13:02.543Z,9.30
2023-12-30T13:15:30.849Z,9.10
2023-12-30T13:18:01.035Z,9.10
2023-12-30T13:20:28.782Z,8.90
2023-12-30T13:22:58.848Z,8.70
2023-12-30T13:25:32.200Z,8.60
2023-12-30T13:27:59.982Z,8.60
2023-12-30T13:30:27.475Z,8.50
2023-12-30T13:32:58.524Z,8.40
2023-12-30T13:35:30.654Z,8.40
2023-12-30T13:37:57.976Z,8.40
2023-12-30T13:40:26.175Z,8.30
2023-12-30T13:42:55.770Z,8.20
2023-12-30T13:45:23.659Z,8.20
2023-12-30T13:47:51.125Z,8.30
2023-12-30T13:50:31.472Z,8.20
2023-12-30T13:53:03.237Z,8.20
2023-12-30T13:55:36.104Z,8.10
2023-12-30T13:58:06.085Z,8.10
2023-12-30T14:00:33.617Z,8.10
2023-12-30T14:03:05.422Z,8.00
2023-12-30T14:05:46.353Z,8.00
2023-12-30T14:08:17.031Z,8.00
2023-12-30T14:10:48.908Z,8.10
2023-12-30T14:13:18.047Z,8.00
2023-12-30T14:15:49.215Z,8.00
2023-12-30T14:18:19.218Z,8.00
2023-12-30T14:20:48.058Z,8.00
2023-12-30T14:23:16.451Z,7.90
2023-12-30T14:25:46.238Z,7.90
2023-12-30T14:28:14.107Z,7.90
2023-12-30T14:30:41.676Z,7.90
2023-12-30T14:33:09.765Z,7.90
2023-12-30T14:35:37.597Z,7.90
2023-12-30T14:38:08.155Z,7.80
2023-12-30T14:40:36.804Z,7.70
2023-12-30T14:43:04.891Z,7.70
2023-12-30T14:45:32.563Z,7.70
2023-12-30T14:48:02.218Z,7.70
2023-12-30T14:50:30.690Z,7.80
2023-12-30T14:52:58.442Z,7.70
2023-12-30T14:55:25.887Z,7.60
2023-12-30T14:57:53.410Z,7.50
2023-12-30T15:00:23.372Z,7.60
2023-12-30T15:02:51.818Z,7.60
2023-12-30T15:05:23.486Z,7.50
2023-12-30T15:07:56.741Z,7.50
2023-12-30T15:10:25.913Z,7.60
2023-12-30T15:12:54.034Z,7.70
2023-12-30T15:15:21.843Z,7.60
2023-12-30T15:17:49.600Z,7.50
2023-12-30T15:20:18.802Z,7.40
2023-12-30T15:22:46.834Z,7.50
2023-12-30T15:25:19.275Z,7.60
2023-12-30T15:27:52.982Z,7.60
2023-12-30T15:30:20.557Z,7.70
2023-12-30T15:32:48.253Z,7.60
2023-12-30T15:35:15.929Z,7.60
2023-12-30T15:37:44.998Z,7.60
2023-12-30T15:40:14.135Z,7.70
2023-12-30T15:42:44.088Z,7.60
2023-12-30T15:45:14.364Z,7.60
2023-12-30T15:47:43.794Z,7.70
2023-12-30T15:50:12.039Z,7.70
2023-12-30T15:52:39.740Z,7.70
2023-12-30T15:55:07.857Z,7.70
2023-12-30T15:57:35.291Z,7.70
2023-12-30T16:00:03.065Z,7.70
2023-12-30T16:02:31.107Z,7.70
2023-12-30T16:04:58.525Z,7.70
2023-12-30T16:07:26.142Z,7.70
2023-12-30T16:09:54.623Z,7.60
2023-12-30T16:12:24.686Z,7.40
2023-12-30T16:14:52.601Z,7.30
2023-12-30T16:17:20.301Z,7.30
2023-12-30T16:19:48.040Z,7.30
2023-12-30T16:22:15.991Z,7.40
2023-12-30T16:24:43.505Z,7.30
2023-12-30T16:27:11.261Z,7.30
2023-12-30T16:29:43.970Z,7.30
2023-12-30T16:32:11.608Z,7.40
2023-12-30T16:34:39.206Z,7.50
2023-12-30T16:37:06.941Z,7.50
2023-12-30T16:39:34.392Z,7.60
2023-12-30T16:42:03.953Z,7.50
2023-12-30T16:44:31.323Z,7.50
2023-12-30T16:46:59.233Z,7.50
2023-12-30T16:49:27.033Z,7.50
2023-12-30T16:51:54.618Z,7.50
2023-12-30T16:54:22.119Z,7.50
2023-12-30T16:56:49.666Z,7.50
2023-12-30T16:59:17.203Z,7.50
2023-12-30T17:01:44.596Z,7.50
2023-12-30T17:04:12.316Z,7.40
2023-12-30T17:06:39.674Z,7.50
2023-12-30T17:09:07.227Z,7.40
2023-12-30T17:11:36.756Z,7.50
2023-12-30T17:14:06.895Z,7.40
2023-12-30T17:16:34.422Z,7.50
2023-12-30T17:19:01.865Z,7.60
2023-12-30T17:21:31.547Z,7.50
2023-12-30T17:23:59.337Z,7.50
2023-12-30T17:26:26.642Z,7.60
2023-12-30T17:28:54.534Z,7.50
2023-12-30T17:31:24.960Z,7.50
2023-12-30T17:33:52.418Z,7.40
2023-12-30T17:36:20.323Z,7.40
2023-12-30T17:38:47.834Z,7.40
2023-12-30T17:41:16.095Z,7.50
2023-12-30T17:43:44.379Z,7.40
2023-12-30T17:46:29.701Z,7.50
2023-12-30T17:48:57.595Z,7.50
2023-12-30T17:51:26.830Z,7.50
2023-12-30T17:53:54.269Z,7.50
2023-12-30T17:56:21.803Z,7.40
2023-12-30T17:58:51.395Z,7.30
2023-12-30T18:01:19.673Z,7.30
2023-12-30T18:03:56.831Z,7.30
2023-12-30T18:06:24.334Z,7.30
2023-12-30T18:08:51.827Z,7.20
2023-12-30T18:11:22.868Z,7.20
2023-12-30T18:13:50.461Z,7.20
2023-12-30T18:16:17.947Z,7.10
2023-12-30T18:18:45.707Z,7.20
2023-12-30T18:21:13.237Z,7.20
2023-12-30T18:23:40.645Z,7.30
2023-12-30T18:26:13.098Z,7.30
2023-12-30T18:28:41.146Z,7.40
2023-12-30T18:31:08.787Z,7.40
2023-12-30T18:33:36.483Z,7.30
2023-12-30T18:36:04.289Z,7.10
2023-12-30T18:38:33.671Z,7.00
2023-12-30T18:41:03.546Z,6.90
2023-12-30T18:43:30.957Z,6.80
2023-12-30T18:46:00.856Z,6.70
2023-12-30T18:48:28.401Z,6.60
2023-12-30T18:50:59.563Z,6.60
2023-12-30T18:53:26.911Z,6.70
2023-12-30T18:55:54.690Z,6.60
2023-12-30T18:58:22.633Z,6.60
2023-12-30T19:00:50.906Z,6.70
2023-12-30T19:03:18.872Z,6.70
2023-12-30T19:05:46.881Z,6.70
2023-12-30T19:08:14.369Z,6.80
2023-12-30T19:10:41.870Z,6.80
2023-12-30T19:13:09.417Z,6.90
2023-12-30T19:15:37.004Z,6.90
2023-12-30T19:18:06.929Z,7.00
2023-12-30T19:20:34.992Z,7.00
2023-12-30T19:23:02.833Z,7.00
2023-12-30T19:25:30.658Z,7.00
2023-12-30T19:27:59.315Z,7.10
2023-12-30T19:30:27.108Z,7.20
2023-12-30T19:32:56.361Z,7.20
2023-12-30T19:35:24.002Z,7.20
2023-12-30T19:37:51.756Z,7.20
2023-12-30T19:40:19.537Z,7.10
2023-12-30T19:42:47.058Z,7.10
2023-12-30T19:45:14.658Z,7.20
2023-12-30T19:47:42.285Z,7.20
2023-12-30T19:50:10.766Z,7.20
2023-12-30T19:52:39.156Z,7.20
2023-12-30T19:55:07.451Z,7.20
2023-12-30T19:57:34.964Z,7.20
2023-12-30T20:00:19.472Z,7.20
2023-12-30T20:02:48.020Z,7.20
2023-12-30T20:05:16.370Z,7.20
2023-12-30T20:07:44.437Z,7.20
2023-12-30T20:10:12.867Z,7.20
2023-12-30T20:12:40.354Z,7.10
2023-12-30T20:15:08.620Z,7.10
2023-12-30T20:17:39.050Z,7.00
2023-12-30T20:20:07.498Z,7.00
2023-12-30T20:22:35.257Z,7.00
2023-12-30T20:25:02.772Z,7.00
2023-12-30T20:27:30.135Z,7.00
2023-12-30T20:29:57.414Z,7.00
2023-12-30T20:32:24.753Z,6.90
2023-12-30T20:34:52.476Z,6.90
2023-12-30T20:37:19.884Z,6.80
2023-12-30T20:39:47.420Z,6.70
2023-12-30T20:42:16.290Z,6.70
2023-12-30T20:44:43.530Z,6.70
2023-12-30T20:47:13.207Z,6.70
2023-12-30T20:49:45.077Z,6.60
2023-12-30T20:52:13.596Z,6.60
2023-12-30T20:54:42.230Z,6.60
2023-12-30T20:57:10.299Z,6.50
2023-12-30T20:59:37.718Z,6.40
2023-12-30T21:02:05.271Z,6.40
2023-12-30T21:04:36.019Z,6.40
2023-12-30T21:07:03.350Z,6.40
2023-12-30T21:09:31.148Z,6.30
2023-12-30T21:11:58.334Z,6.30
2023-12-30T21:14:25.591Z,6.30
2023-12-30T21:16:56.060Z,6.30
2023-12-30T21:19:23.575Z,6.30
2023-12-30T21:21:50.802Z,6.20
2023-12-30T21:24:18.089Z,6.00
2023-12-30T21:26:45.305Z,5.70
2023-12-30T21:29:12.601Z,5.60
2023-12-30T21:31:44.053Z,5.70
2023-12-30T21:34:14.860Z,5.70
2023-12-30T21:36:42.411Z,5.80
2023-12-30T21:39:13.516Z,5.70
2023-12-30T21:41:41.185Z,5.70
2023-12-30T21:44:08.344Z,5.70
2023-12-30T21:46:45.442Z,5.60
2023-12-30T21:49:16.044Z,5.60
2023-12-30T21:51:45.208Z,5.50
2023-12-30T21:54:14.749Z,5.40
2023-12-30T21:56:43.279Z,5.40
2023-12-30T21:59:10.941Z,5.30
2023-12-30T22:01:38.482Z,5.20
2023-12-30T22:04:06.440Z,5.20
2023-12-30T22:06:34.328Z,5.00
2023-12-30T22:09:01.741Z,4.90
2023-12-30T22:11:29.172Z,4.90
2023-12-30T22:13:56.946Z,4.90
2023-12-30T22:16:24.590Z,4.90
2023-12-30T22:18:52.013Z,5.00
2023-12-30T22:21:19.612Z,5.10
2023-12-30T22:23:48.809Z,5.10
2023-12-30T22:26:20.565Z,4.90
2023-12-30T22:28:48.303Z,5.00
2023-12-30T22:31:15.934Z,4.90
2023-12-30T22:33:43.323Z,5.00
2023-12-30T22:36:10.787Z,5.00
2023-12-30T22:38:39.082Z,4.90
2023-12-30T22:41:06.327Z,4.80
2023-12-30T22:43:34.940Z,4.70
2023-12-30T22:46:03.037Z,4.50
2023-12-30T22:48:30.338Z,4.50
2023-12-30T22:50:57.788Z,4.40
2023-12-30T22:53:25.059Z,4.30
2023-12-30T22:55:52.357Z,4.30
2023-12-30T22:58:19.652Z,4.40
2023-12-30T23:00:51.344Z,4.20
2023-12-30T23:03:19.929Z,4.30
2023-12-30T23:05:47.957Z,4.30
2023-12-30T23:08:15.250Z,4.30
2023-12-30T23:10:42.890Z,4.40
2023-12-30T23:13:10.200Z,4.50
2023-12-30T23:15:37.838Z,4.60
2023-12-30T23:18:06.075Z,4.50
2023-12-30T23:20:33.592Z,4.60
2023-12-30T23:23:01.036Z,4.50
2023-12-30T23:25:28.560Z,4.40
2023-12-30T23:27:56.163Z,4.40
2023-12-30T23:30:23.495Z,4.50
2023-12-30T23:32:50.766Z,4.40
2023-12-30T23:35:19.728Z,4.20
2023-12-30T23:37:46.979Z,4.30
2023-12-30T23:40:14.346Z,4.40
2023-12-30T23:42:42.620Z,4.20
2023-12-30T23:45:10.564Z,4.20
2023-12-30T23:47:38.770Z,4.30
2023-12-30T23:50:06.465Z,4.30
2023-12-30T23:52:33.945Z,4.30
2023-12-30T23:55:01.513Z,4.30
2023-12-30T23:57:28.863Z,4.20
2023-12-30T23:59:56.408Z,4.20
